sensor_id;sensor_type;location;lat;lon;timestamp;temperature;humidity
69162;DHT22;56269;51.738;21.652;2023-10-13T00:02:01;9.57;99.99
69162;DHT22;56269;51.738;21.652;2023-10-13T00:04:31;9.57;99.99
69162;DHT22;56269;51.738;21.652;2023-10-13T00:07:02;9.55;99.99
69162;DHT22;56269;51.738;21.652;2023-10-13T00:09:30;9.62;99.99
69162;DHT22;56269;51.738;21.652;2023-10-13T00:12:07;9.72;99.99
69162;DHT22;56269;51.738;21.652;2023-10-13T00:14:39;9.77;99.99
69162;DHT22;56269;51.738;21.652;2023-10-13T00:17:11;9.88;99.99
69162;DHT22;56269;51.738;21.652;2023-10-13T00:19:46;9.90;99.99
69162;DHT22;56269;51.738;21.652;2023-10-13T00:22:18;9.93;99.99
69162;DHT22;56269;51.738;21.652;2023-10-13T00:24:45;9.89;99.99
69162;DHT22;56269;51.738;21.652;2023-10-13T00:27:22;9.83;99.99
69162;DHT22;56269;51.738;21.652;2023-10-13T00:30:04;9.79;99.99
69162;DHT22;56269;51.738;21.652;2023-10-13T00:32:59;9.75;99.99
69162;DHT22;56269;51.738;21.652;2023-10-13T00:35:27;9.77;99.99
69162;DHT22;56269;51.738;21.652;2023-10-13T00:38:04;9.79;99.99
69162;DHT22;56269;51.738;21.652;2023-10-13T00:40:41;9.86;99.99
69162;DHT22;56269;51.738;21.652;2023-10-13T00:43:09;9.72;99.99
69162;DHT22;56269;51.738;21.652;2023-10-13T00:45:45;9.51;99.99
69162;DHT22;56269;51.738;21.652;2023-10-13T00:48:25;9.48;99.99
69162;DHT22;56269;51.738;21.652;2023-10-13T00:50:57;9.32;99.99
69162;DHT22;56269;51.738;21.652;2023-10-13T00:53:25;9.32;99.99
69162;DHT22;56269;51.738;21.652;2023-10-13T00:55:53;9.34;99.99
69162;DHT22;56269;51.738;21.652;2023-10-13T00:58:22;9.45;99.99
69162;DHT22;56269;51.738;21.652;2023-10-13T01:00:50;9.83;99.99
69162;DHT22;56269;51.738;21.652;2023-10-13T01:03:23;9.74;99.99
69162;DHT22;56269;51.738;21.652;2023-10-13T01:05:55;9.71;99.99
69162;DHT22;56269;51.738;21.652;2023-10-13T01:08:32;9.68;99.99
69162;DHT22;56269;51.738;21.652;2023-10-13T01:11:04;9.72;99.99
69162;DHT22;56269;51.738;21.652;2023-10-13T01:13:35;9.68;99.99
69162;DHT22;56269;51.738;21.652;2023-10-13T01:16:03;9.69;99.99
69162;DHT22;56269;51.738;21.652;2023-10-13T01:18:30;9.74;99.99
69162;DHT22;56269;51.738;21.652;2023-10-13T01:20:56;9.86;99.99
69162;DHT22;56269;51.738;21.652;2023-10-13T01:23:28;9.93;99.99
69162;DHT22;56269;51.738;21.652;2023-10-13T01:25:55;10.02;99.99
69162;DHT22;56269;51.738;21.652;2023-10-13T01:28:23;9.90;99.99
69162;DHT22;56269;51.738;21.652;2023-10-13T01:30:50;9.88;99.99
69162;DHT22;56269;51.738;21.652;2023-10-13T01:33:20;9.85;99.99
69162;DHT22;56269;51.738;21.652;2023-10-13T01:35:53;9.88;99.99
69162;DHT22;56269;51.738;21.652;2023-10-13T01:38:21;9.95;99.99
69162;DHT22;56269;51.738;21.652;2023-10-13T01:40:47;10.00;99.99
69162;DHT22;56269;51.738;21.652;2023-10-13T01:43:17;10.06;99.99
69162;DHT22;56269;51.738;21.652;2023-10-13T01:45:43;10.03;99.99
69162;DHT22;56269;51.738;21.652;2023-10-13T01:48:13;10.09;99.99
69162;DHT22;56269;51.738;21.652;2023-10-13T01:50:44;10.33;99.99
69162;DHT22;56269;51.738;21.652;2023-10-13T01:53:14;10.50;99.06
69162;DHT22;56269;51.738;21.652;2023-10-13T01:55:43;10.46;98.61
69162;DHT22;56269;51.738;21.652;2023-10-13T01:58:11;10.29;99.45
69162;DHT22;56269;51.738;21.652;2023-10-13T02:00:45;10.21;99.86
69162;DHT22;56269;51.738;21.652;2023-10-13T02:03:13;10.16;99.99
69162;DHT22;56269;51.738;21.652;2023-10-13T02:05:48;10.17;99.99
69162;DHT22;56269;51.738;21.652;2023-10-13T02:08:15;10.44;99.36
69162;DHT22;56269;51.738;21.652;2023-10-13T02:10:52;10.47;98.87
69162;DHT22;56269;51.738;21.652;2023-10-13T02:13:20;10.51;98.69
69162;DHT22;56269;51.738;21.652;2023-10-13T02:15:48;10.44;99.09
69162;DHT22;56269;51.738;21.652;2023-10-13T02:18:19;10.37;99.23
69162;DHT22;56269;51.738;21.652;2023-10-13T02:21:15;10.50;98.95
69162;DHT22;56269;51.738;21.652;2023-10-13T02:23:41;10.49;99.00
69162;DHT22;56269;51.738;21.652;2023-10-13T02:26:13;10.46;99.22
69162;DHT22;56269;51.738;21.652;2023-10-13T02:29:00;10.59;98.91
69162;DHT22;56269;51.738;21.652;2023-10-13T02:31:38;10.57;98.93
69162;DHT22;56269;51.738;21.652;2023-10-13T02:34:05;10.46;99.36
69162;DHT22;56269;51.738;21.652;2023-10-13T02:36:35;10.41;99.63
69162;DHT22;56269;51.738;21.652;2023-10-13T02:39:05;10.34;99.63
69162;DHT22;56269;51.738;21.652;2023-10-13T02:41:35;10.29;99.99
69162;DHT22;56269;51.738;21.652;2023-10-13T02:44:05;10.29;99.99
69162;DHT22;56269;51.738;21.652;2023-10-13T02:46:35;10.26;99.92
69162;DHT22;56269;51.738;21.652;2023-10-13T02:49:03;10.24;99.99
69162;DHT22;56269;51.738;21.652;2023-10-13T02:51:39;10.16;99.99
69162;DHT22;56269;51.738;21.652;2023-10-13T02:54:09;10.06;99.99
69162;DHT22;56269;51.738;21.652;2023-10-13T02:56:44;9.98;99.99
69162;DHT22;56269;51.738;21.652;2023-10-13T02:59:26;9.78;99.99
69162;DHT22;56269;51.738;21.652;2023-10-13T03:02:11;9.62;99.99
69162;DHT22;56269;51.738;21.652;2023-10-13T03:04:47;9.51;99.99
69162;DHT22;56269;51.738;21.652;2023-10-13T03:07:13;9.48;99.99
69162;DHT22;56269;51.738;21.652;2023-10-13T03:09:50;9.47;99.99
69162;DHT22;56269;51.738;21.652;2023-10-13T03:12:17;9.48;99.99
69162;DHT22;56269;51.738;21.652;2023-10-13T03:14:43;9.52;99.99
69162;DHT22;56269;51.738;21.652;2023-10-13T03:17:20;9.55;99.99
69162;DHT22;56269;51.738;21.652;2023-10-13T03:19:59;9.58;99.99
69162;DHT22;56269;51.738;21.652;2023-10-13T03:22:26;9.55;99.99
69162;DHT22;56269;51.738;21.652;2023-10-13T03:24:59;9.57;99.99
69162;DHT22;56269;51.738;21.652;2023-10-13T03:27:39;9.59;99.99
69162;DHT22;56269;51.738;21.652;2023-10-13T03:30:27;9.67;99.99
69162;DHT22;56269;51.738;21.652;2023-10-13T03:33:12;9.77;99.99
69162;DHT22;56269;51.738;21.652;2023-10-13T03:35:40;9.69;99.99
69162;DHT22;56269;51.738;21.652;2023-10-13T03:38:18;9.59;99.99
69162;DHT22;56269;51.738;21.652;2023-10-13T03:40:50;9.55;99.99
69162;DHT22;56269;51.738;21.652;2023-10-13T03:43:33;9.45;99.99
69162;DHT22;56269;51.738;21.652;2023-10-13T03:46:11;9.35;99.99
69162;DHT22;56269;51.738;21.652;2023-10-13T03:48:37;9.34;99.99
69162;DHT22;56269;51.738;21.652;2023-10-13T03:51:20;9.30;99.99
69162;DHT22;56269;51.738;21.652;2023-10-13T03:53:49;9.26;99.99
69162;DHT22;56269;51.738;21.652;2023-10-13T03:56:24;9.23;99.99
69162;DHT22;56269;51.738;21.652;2023-10-13T03:58:54;9.18;99.99
69162;DHT22;56269;51.738;21.652;2023-10-13T04:01:24;9.21;99.99
69162;DHT22;56269;51.738;21.652;2023-10-13T04:04:10;9.28;99.99
69162;DHT22;56269;51.738;21.652;2023-10-13T04:06:44;9.35;99.99
69162;DHT22;56269;51.738;21.652;2023-10-13T04:09:17;9.39;99.99
69162;DHT22;56269;51.738;21.652;2023-10-13T04:12:00;9.52;99.99
69162;DHT22;56269;51.738;21.652;2023-10-13T04:14:36;9.54;99.99
69162;DHT22;56269;51.738;21.652;2023-10-13T04:17:21;9.54;99.99
69162;DHT22;56269;51.738;21.652;2023-10-13T04:19:56;9.57;99.99
69162;DHT22;56269;51.738;21.652;2023-10-13T04:22:38;9.61;99.99
69162;DHT22;56269;51.738;21.652;2023-10-13T04:25:25;9.65;99.99
69162;DHT22;56269;51.738;21.652;2023-10-13T04:28:10;9.67;99.99
69162;DHT22;56269;51.738;21.652;2023-10-13T04:30:53;9.69;99.99
69162;DHT22;56269;51.738;21.652;2023-10-13T04:33:32;9.74;99.99
69162;DHT22;56269;51.738;21.652;2023-10-13T04:36:13;9.77;99.99
69162;DHT22;56269;51.738;21.652;2023-10-13T04:38:41;9.89;99.99
69162;DHT22;56269;51.738;21.652;2023-10-13T04:41:32;9.92;99.99
69162;DHT22;56269;51.738;21.652;2023-10-13T04:44:06;9.90;99.99
69162;DHT22;56269;51.738;21.652;2023-10-13T04:46:54;9.95;99.99
69162;DHT22;56269;51.738;21.652;2023-10-13T04:49:39;9.93;99.99
69162;DHT22;56269;51.738;21.652;2023-10-13T04:52:08;9.93;99.99
69162;DHT22;56269;51.738;21.652;2023-10-13T04:54:36;9.93;99.99
69162;DHT22;56269;51.738;21.652;2023-10-13T04:57:16;10.00;99.99
69162;DHT22;56269;51.738;21.652;2023-10-13T04:59:50;9.99;99.99
69162;DHT22;56269;51.738;21.652;2023-10-13T05:02:35;10.08;99.99
69162;DHT22;56269;51.738;21.652;2023-10-13T05:05:02;10.12;99.99
69162;DHT22;56269;51.738;21.652;2023-10-13T05:07:47;10.20;99.87
69162;DHT22;56269;51.738;21.652;2023-10-13T05:10:35;10.37;99.60
69162;DHT22;56269;51.738;21.652;2023-10-13T05:13:20;10.46;99.40
69162;DHT22;56269;51.738;21.652;2023-10-13T05:16:04;10.32;99.44
69162;DHT22;56269;51.738;21.652;2023-10-13T05:18:49;10.33;99.67
69162;DHT22;56269;51.738;21.652;2023-10-13T05:21:33;10.50;99.11
69162;DHT22;56269;51.738;21.652;2023-10-13T05:24:18;10.46;99.10
69162;DHT22;56269;51.738;21.652;2023-10-13T05:27:02;10.40;99.55
69162;DHT22;56269;51.738;21.652;2023-10-13T05:29:48;10.39;99.41
69162;DHT22;56269;51.738;21.652;2023-10-13T05:32:33;10.36;99.74
69162;DHT22;56269;51.738;21.652;2023-10-13T05:35:20;10.37;99.80
69162;DHT22;56269;51.738;21.652;2023-10-13T05:38:05;10.40;99.87
69162;DHT22;56269;51.738;21.652;2023-10-13T05:40:55;10.43;99.99
69162;DHT22;56269;51.738;21.652;2023-10-13T05:43:40;10.44;99.99
69162;DHT22;56269;51.738;21.652;2023-10-13T05:46:25;10.53;99.97
69162;DHT22;56269;51.738;21.652;2023-10-13T05:48:52;10.51;99.64
69162;DHT22;56269;51.738;21.652;2023-10-13T05:51:25;10.51;99.50
69162;DHT22;56269;51.738;21.652;2023-10-13T05:54:10;10.57;99.57
69162;DHT22;56269;51.738;21.652;2023-10-13T05:56:40;10.61;99.49
69162;DHT22;56269;51.738;21.652;2023-10-13T05:59:26;10.74;99.37
69162;DHT22;56269;51.738;21.652;2023-10-13T06:02:11;10.75;99.26
69162;DHT22;56269;51.738;21.652;2023-10-13T06:04:56;10.77;99.73
69162;DHT22;56269;51.738;21.652;2023-10-13T06:07:40;10.82;99.27
69162;DHT22;56269;51.738;21.652;2023-10-13T06:10:25;10.95;98.70
69162;DHT22;56269;51.738;21.652;2023-10-13T06:13:10;10.88;98.61
69162;DHT22;56269;51.738;21.652;2023-10-13T06:15:54;10.92;98.29
69162;DHT22;56269;51.738;21.652;2023-10-13T06:18:39;11.04;98.28
69162;DHT22;56269;51.738;21.652;2023-10-13T06:21:23;11.08;98.44
69162;DHT22;56269;51.738;21.652;2023-10-13T06:24:08;11.04;97.52
69162;DHT22;56269;51.738;21.652;2023-10-13T06:26:53;11.12;98.61
69162;DHT22;56269;51.738;21.652;2023-10-13T06:29:38;11.21;96.98
69162;DHT22;56269;51.738;21.652;2023-10-13T06:32:04;11.22;96.68
69162;DHT22;56269;51.738;21.652;2023-10-13T06:34:36;11.28;96.88
69162;DHT22;56269;51.738;21.652;2023-10-13T06:37:17;11.26;96.44
69162;DHT22;56269;51.738;21.652;2023-10-13T06:39:57;11.29;96.12
69162;DHT22;56269;51.738;21.652;2023-10-13T06:42:26;11.32;95.87
69162;DHT22;56269;51.738;21.652;2023-10-13T06:44:55;11.36;95.91
69162;DHT22;56269;51.738;21.652;2023-10-13T06:47:22;11.45;95.25
69162;DHT22;56269;51.738;21.652;2023-10-13T06:49:50;11.49;94.88
69162;DHT22;56269;51.738;21.652;2023-10-13T06:52:21;11.55;95.17
69162;DHT22;56269;51.738;21.652;2023-10-13T06:54:55;11.59;95.56
69162;DHT22;56269;51.738;21.652;2023-10-13T06:57:22;11.67;95.37
69162;DHT22;56269;51.738;21.652;2023-10-13T06:59:49;11.67;95.49
69162;DHT22;56269;51.738;21.652;2023-10-13T07:02:15;11.59;95.58
69162;DHT22;56269;51.738;21.652;2023-10-13T07:04:48;11.62;95.72
69162;DHT22;56269;51.738;21.652;2023-10-13T07:07:23;11.74;95.51
69162;DHT22;56269;51.738;21.652;2023-10-13T07:09:49;11.83;95.03
69162;DHT22;56269;51.738;21.652;2023-10-13T07:12:21;11.95;94.63
69162;DHT22;56269;51.738;21.652;2023-10-13T07:14:54;12.03;94.27
69162;DHT22;56269;51.738;21.652;2023-10-13T07:17:31;12.24;94.51
69162;DHT22;56269;51.738;21.652;2023-10-13T07:20:05;12.24;93.82
69162;DHT22;56269;51.738;21.652;2023-10-13T07:22:41;12.27;94.29
69162;DHT22;56269;51.738;21.652;2023-10-13T07:25:15;12.20;93.83
69162;DHT22;56269;51.738;21.652;2023-10-13T07:27:50;12.14;93.56
69162;DHT22;56269;51.738;21.652;2023-10-13T07:30:16;12.05;93.37
69162;DHT22;56269;51.738;21.652;2023-10-13T07:32:46;12.10;93.50
69162;DHT22;56269;51.738;21.652;2023-10-13T07:35:12;12.13;92.52
69162;DHT22;56269;51.738;21.652;2023-10-13T07:37:42;12.20;92.94
69162;DHT22;56269;51.738;21.652;2023-10-13T07:40:08;12.33;92.61
69162;DHT22;56269;51.738;21.652;2023-10-13T07:42:56;12.48;92.11
69162;DHT22;56269;51.738;21.652;2023-10-13T07:45:30;12.56;91.56
69162;DHT22;56269;51.738;21.652;2023-10-13T07:50:39;13.06;91.08
69162;DHT22;56269;51.738;21.652;2023-10-13T07:53:06;13.12;90.24
69162;DHT22;56269;51.738;21.652;2023-10-13T07:55:45;13.07;89.96
69162;DHT22;56269;51.738;21.652;2023-10-13T07:58:14;13.05;90.33
69162;DHT22;56269;51.738;21.652;2023-10-13T08:00:40;13.10;90.56
69162;DHT22;56269;51.738;21.652;2023-10-13T08:03:09;13.02;90.82
69162;DHT22;56269;51.738;21.652;2023-10-13T08:05:53;12.96;90.80
69162;DHT22;56269;51.738;21.652;2023-10-13T08:08:33;12.92;90.92
69162;DHT22;56269;51.738;21.652;2023-10-13T08:11:11;12.93;90.51
69162;DHT22;56269;51.738;21.652;2023-10-13T08:13:39;13.12;90.88
69162;DHT22;56269;51.738;21.652;2023-10-13T08:16:14;13.19;90.10
69162;DHT22;56269;51.738;21.652;2023-10-13T08:18:51;13.26;90.58
69162;DHT22;56269;51.738;21.652;2023-10-13T08:21:19;13.40;89.83
69162;DHT22;56269;51.738;21.652;2023-10-13T08:23:58;13.44;89.31
69162;DHT22;56269;51.738;21.652;2023-10-13T08:26:31;13.42;88.83
69162;DHT22;56269;51.738;21.652;2023-10-13T08:29:04;13.50;88.83
69162;DHT22;56269;51.738;21.652;2023-10-13T08:31:49;13.74;89.41
69162;DHT22;56269;51.738;21.652;2023-10-13T08:34:35;13.79;88.04
69162;DHT22;56269;51.738;21.652;2023-10-13T08:37:10;14.09;87.72
69162;DHT22;56269;51.738;21.652;2023-10-13T08:39:45;14.32;87.36
69162;DHT22;56269;51.738;21.652;2023-10-13T08:42:31;14.39;86.69
69162;DHT22;56269;51.738;21.652;2023-10-13T08:45:19;14.63;86.08
69162;DHT22;56269;51.738;21.652;2023-10-13T08:47:56;14.66;86.28
69162;DHT22;56269;51.738;21.652;2023-10-13T08:50:43;14.73;86.22
69162;DHT22;56269;51.738;21.652;2023-10-13T08:53:30;14.72;86.79
69162;DHT22;56269;51.738;21.652;2023-10-13T08:56:05;14.70;87.64
69162;DHT22;56269;51.738;21.652;2023-10-13T08:58:45;14.84;88.43
69162;DHT22;56269;51.738;21.652;2023-10-13T09:04:10;15.11;87.86
69162;DHT22;56269;51.738;21.652;2023-10-13T09:06:51;15.21;88.49
69162;DHT22;56269;51.738;21.652;2023-10-13T09:12:27;15.06;88.26
69162;DHT22;56269;51.738;21.652;2023-10-13T09:15:09;15.24;87.76
69162;DHT22;56269;51.738;21.652;2023-10-13T09:17:48;15.21;88.13
69162;DHT22;56269;51.738;21.652;2023-10-13T09:20:27;15.32;88.05
69162;DHT22;56269;51.738;21.652;2023-10-13T09:23:14;15.35;89.43
69162;DHT22;56269;51.738;21.652;2023-10-13T09:26:06;15.31;90.08
69162;DHT22;56269;51.738;21.652;2023-10-13T09:28:35;15.26;89.19
69162;DHT22;56269;51.738;21.652;2023-10-13T09:31:03;15.44;89.54
69162;DHT22;56269;51.738;21.652;2023-10-13T09:33:33;15.75;89.48
69162;DHT22;56269;51.738;21.652;2023-10-13T09:36:03;15.93;88.35
69162;DHT22;56269;51.738;21.652;2023-10-13T09:38:34;16.02;87.58
69162;DHT22;56269;51.738;21.652;2023-10-13T09:41:04;16.09;87.59
69162;DHT22;56269;51.738;21.652;2023-10-13T09:43:52;16.19;88.63
69162;DHT22;56269;51.738;21.652;2023-10-13T09:46:21;16.14;87.87
69162;DHT22;56269;51.738;21.652;2023-10-13T09:48:57;16.29;88.17
69162;DHT22;56269;51.738;21.652;2023-10-13T09:51:30;16.46;87.89
69162;DHT22;56269;51.738;21.652;2023-10-13T09:54:09;16.71;87.39
69162;DHT22;56269;51.738;21.652;2023-10-13T09:56:42;16.67;87.08
69162;DHT22;56269;51.738;21.652;2023-10-13T09:59:24;16.23;87.79
69162;DHT22;56269;51.738;21.652;2023-10-13T10:02:01;16.40;88.34
69162;DHT22;56269;51.738;21.652;2023-10-13T10:04:36;16.26;88.00
69162;DHT22;56269;51.738;21.652;2023-10-13T10:07:26;16.17;88.97
69162;DHT22;56269;51.738;21.652;2023-10-13T10:10:00;16.20;88.72
69162;DHT22;56269;51.738;21.652;2023-10-13T10:18:00;16.56;88.19
69162;DHT22;56269;51.738;21.652;2023-10-13T10:20:33;16.68;88.45
69162;DHT22;56269;51.738;21.652;2023-10-13T10:23:10;16.65;87.75
69162;DHT22;56269;51.738;21.652;2023-10-13T10:25:48;16.89;88.82
69162;DHT22;56269;51.738;21.652;2023-10-13T10:28:17;16.95;87.72
69162;DHT22;56269;51.738;21.652;2023-10-13T10:30:45;16.80;87.71
69162;DHT22;56269;51.738;21.652;2023-10-13T10:33:12;16.78;87.91
69162;DHT22;56269;51.738;21.652;2023-10-13T10:35:43;17.02;87.63
69162;DHT22;56269;51.738;21.652;2023-10-13T10:38:11;17.28;87.83
69162;DHT22;56269;51.738;21.652;2023-10-13T10:41:02;17.19;87.00
69162;DHT22;56269;51.738;21.652;2023-10-13T10:43:37;17.32;87.22
69162;DHT22;56269;51.738;21.652;2023-10-13T10:46:18;17.42;86.55
69162;DHT22;56269;51.738;21.652;2023-10-13T10:48:45;17.55;87.05
69162;DHT22;56269;51.738;21.652;2023-10-13T10:51:12;17.76;86.61
69162;DHT22;56269;51.738;21.652;2023-10-13T10:53:49;18.00;85.45
69162;DHT22;56269;51.738;21.652;2023-10-13T10:56:19;18.01;85.06
69162;DHT22;56269;51.738;21.652;2023-10-13T10:59:06;18.13;85.21
69162;DHT22;56269;51.738;21.652;2023-10-13T11:01:43;18.10;85.17
69162;DHT22;56269;51.738;21.652;2023-10-13T11:04:19;18.30;84.91
69162;DHT22;56269;51.738;21.652;2023-10-13T11:06:53;18.49;83.89
69162;DHT22;56269;51.738;21.652;2023-10-13T11:09:32;18.86;82.89
69162;DHT22;56269;51.738;21.652;2023-10-13T11:14:32;19.09;82.40
69162;DHT22;56269;51.738;21.652;2023-10-13T11:16:59;19.12;82.64
69162;DHT22;56269;51.738;21.652;2023-10-13T11:19:41;19.37;83.04
69162;DHT22;56269;51.738;21.652;2023-10-13T11:24:41;19.53;81.71
69162;DHT22;56269;51.738;21.652;2023-10-13T11:27:15;20.01;81.48
69162;DHT22;56269;51.738;21.652;2023-10-13T11:30:03;20.68;78.19
69162;DHT22;56269;51.738;21.652;2023-10-13T11:32:32;20.18;79.53
69162;DHT22;56269;51.738;21.652;2023-10-13T11:34:58;20.89;78.63
69162;DHT22;56269;51.738;21.652;2023-10-13T11:37:24;21.19;77.01
69162;DHT22;56269;51.738;21.652;2023-10-13T11:40:05;21.14;76.72
69162;DHT22;56269;51.738;21.652;2023-10-13T11:42:38;21.47;76.47
69162;DHT22;56269;51.738;21.652;2023-10-13T11:45:09;21.99;74.91
69162;DHT22;56269;51.738;21.652;2023-10-13T11:47:55;22.06;76.12
69162;DHT22;56269;51.738;21.652;2023-10-13T11:50:28;21.65;75.75
69162;DHT22;56269;51.738;21.652;2023-10-13T11:53:03;22.12;75.68
69162;DHT22;56269;51.738;21.652;2023-10-13T11:55:33;22.19;74.64
69162;DHT22;56269;51.738;21.652;2023-10-13T11:57:59;22.44;74.40
69162;DHT22;56269;51.738;21.652;2023-10-13T12:00:25;22.68;73.78
69162;DHT22;56269;51.738;21.652;2023-10-13T12:03:10;22.02;74.69
69162;DHT22;56269;51.738;21.652;2023-10-13T12:05:55;22.16;74.88
69162;DHT22;56269;51.738;21.652;2023-10-13T12:08:40;22.23;74.80
69162;DHT22;56269;51.738;21.652;2023-10-13T12:11:18;22.25;75.50
69162;DHT22;56269;51.738;21.652;2023-10-13T12:13:57;21.92;76.45
69162;DHT22;56269;51.738;21.652;2023-10-13T12:16:23;21.54;76.64
69162;DHT22;56269;51.738;21.652;2023-10-13T12:19:00;21.75;76.65
69162;DHT22;56269;51.738;21.652;2023-10-13T12:21:27;22.50;75.80
69162;DHT22;56269;51.738;21.652;2023-10-13T12:23:53;22.42;75.06
69162;DHT22;56269;51.738;21.652;2023-10-13T12:26:19;22.08;74.94
69162;DHT22;56269;51.738;21.652;2023-10-13T12:28:46;21.92;75.67
69162;DHT22;56269;51.738;21.652;2023-10-13T12:31:19;21.11;77.79
69162;DHT22;56269;51.738;21.652;2023-10-13T12:33:53;20.72;79.16
69162;DHT22;56269;51.738;21.652;2023-10-13T12:36:18;20.32;80.06
69162;DHT22;56269;51.738;21.652;2023-10-13T12:38:48;20.26;80.63
69162;DHT22;56269;51.738;21.652;2023-10-13T12:41:14;20.01;80.85
69162;DHT22;56269;51.738;21.652;2023-10-13T12:44:00;20.05;81.86
69162;DHT22;56269;51.738;21.652;2023-10-13T12:46:44;20.04;81.79
69162;DHT22;56269;51.738;21.652;2023-10-13T12:49:29;20.05;82.28
69162;DHT22;56269;51.738;21.652;2023-10-13T12:52:13;20.05;81.85
69162;DHT22;56269;51.738;21.652;2023-10-13T12:54:47;20.11;80.96
69162;DHT22;56269;51.738;21.652;2023-10-13T12:57:34;20.63;79.99
69162;DHT22;56269;51.738;21.652;2023-10-13T13:00:03;20.79;79.35
69162;DHT22;56269;51.738;21.652;2023-10-13T13:02:42;21.23;78.28
69162;DHT22;56269;51.738;21.652;2023-10-13T13:05:08;21.30;76.98
69162;DHT22;56269;51.738;21.652;2023-10-13T13:07:39;21.62;76.48
69162;DHT22;56269;51.738;21.652;2023-10-13T13:10:18;21.31;75.08
69162;DHT22;56269;51.738;21.652;2023-10-13T13:12:45;21.57;75.33
69162;DHT22;56269;51.738;21.652;2023-10-13T13:15:11;21.74;74.75
69162;DHT22;56269;51.738;21.652;2023-10-13T13:17:40;21.54;73.95
69162;DHT22;56269;51.738;21.652;2023-10-13T13:20:08;21.51;74.38
69162;DHT22;56269;51.738;21.652;2023-10-13T13:22:38;21.41;74.53
69162;DHT22;56269;51.738;21.652;2023-10-13T13:25:05;21.58;75.18
69162;DHT22;56269;51.738;21.652;2023-10-13T13:27:34;21.31;75.22
69162;DHT22;56269;51.738;21.652;2023-10-13T13:30:01;21.03;76.07
69162;DHT22;56269;51.738;21.652;2023-10-13T13:32:35;20.66;76.71
69162;DHT22;56269;51.738;21.652;2023-10-13T13:35:03;20.36;77.78
69162;DHT22;56269;51.738;21.652;2023-10-13T13:37:31;20.08;79.27
69162;DHT22;56269;51.738;21.652;2023-10-13T13:39:57;19.82;79.43
69162;DHT22;56269;51.738;21.652;2023-10-13T13:42:43;19.63;80.36
69162;DHT22;56269;51.738;21.652;2023-10-13T13:45:16;19.57;81.08
69162;DHT22;56269;51.738;21.652;2023-10-13T13:47:53;19.63;81.06
69162;DHT22;56269;51.738;21.652;2023-10-13T13:50:24;19.49;81.54
69162;DHT22;56269;51.738;21.652;2023-10-13T13:52:52;19.37;81.51
69162;DHT22;56269;51.738;21.652;2023-10-13T13:55:22;19.31;81.97
69162;DHT22;56269;51.738;21.652;2023-10-13T13:57:50;19.23;82.40
69162;DHT22;56269;51.738;21.652;2023-10-13T14:00:18;19.15;82.61
69162;DHT22;56269;51.738;21.652;2023-10-13T14:02:55;19.09;82.85
69162;DHT22;56269;51.738;21.652;2023-10-13T14:05:22;19.02;83.26
69162;DHT22;56269;51.738;21.652;2023-10-13T14:07:49;18.98;83.81
69162;DHT22;56269;51.738;21.652;2023-10-13T14:10:16;18.95;83.88
69162;DHT22;56269;51.738;21.652;2023-10-13T14:13:05;18.86;84.35
69162;DHT22;56269;51.738;21.652;2023-10-13T14:15:40;18.86;84.12
69162;DHT22;56269;51.738;21.652;2023-10-13T14:18:10;18.91;84.37
69162;DHT22;56269;51.738;21.652;2023-10-13T14:20:41;18.95;84.18
69162;DHT22;56269;51.738;21.652;2023-10-13T14:23:09;18.99;84.21
69162;DHT22;56269;51.738;21.652;2023-10-13T14:25:38;18.95;84.25
69162;DHT22;56269;51.738;21.652;2023-10-13T14:28:05;18.98;84.23
69162;DHT22;56269;51.738;21.652;2023-10-13T14:30:33;18.94;84.67
69162;DHT22;56269;51.738;21.652;2023-10-13T14:32:59;18.95;84.74
69162;DHT22;56269;51.738;21.652;2023-10-13T14:35:25;18.92;85.02
69162;DHT22;56269;51.738;21.652;2023-10-13T14:37:52;18.84;85.18
69162;DHT22;56269;51.738;21.652;2023-10-13T14:40:20;18.82;85.54
69162;DHT22;56269;51.738;21.652;2023-10-13T14:42:49;18.72;86.10
69162;DHT22;56269;51.738;21.652;2023-10-13T14:45:16;18.69;86.36
69162;DHT22;56269;51.738;21.652;2023-10-13T14:47:47;18.55;86.99
69162;DHT22;56269;51.738;21.652;2023-10-13T14:50:13;18.47;87.12
69162;DHT22;56269;51.738;21.652;2023-10-13T14:52:49;18.41;87.16
69162;DHT22;56269;51.738;21.652;2023-10-13T14:55:15;18.33;87.47
69162;DHT22;56269;51.738;21.652;2023-10-13T14:57:48;18.30;87.72
69162;DHT22;56269;51.738;21.652;2023-10-13T15:00:16;18.24;87.65
69162;DHT22;56269;51.738;21.652;2023-10-13T15:02:54;18.20;87.85
69162;DHT22;56269;51.738;21.652;2023-10-13T15:05:20;18.16;88.13
69162;DHT22;56269;51.738;21.652;2023-10-13T15:07:46;18.07;88.46
69162;DHT22;56269;51.738;21.652;2023-10-13T15:10:16;18.04;88.67
69162;DHT22;56269;51.738;21.652;2023-10-13T15:12:45;17.98;88.93
69162;DHT22;56269;51.738;21.652;2023-10-13T15:15:12;17.89;89.32
69162;DHT22;56269;51.738;21.652;2023-10-13T15:17:42;17.83;89.59
69162;DHT22;56269;51.738;21.652;2023-10-13T15:20:10;17.80;89.88
69162;DHT22;56269;51.738;21.652;2023-10-13T15:22:43;17.67;90.27
69162;DHT22;56269;51.738;21.652;2023-10-13T15:25:09;17.66;90.30
69162;DHT22;56269;51.738;21.652;2023-10-13T15:28:00;17.61;90.39
69162;DHT22;56269;51.738;21.652;2023-10-13T15:30:33;17.62;90.49
69162;DHT22;56269;51.738;21.652;2023-10-13T15:33:22;17.40;91.18
69162;DHT22;56269;51.738;21.652;2023-10-13T15:35:49;17.45;90.98
69162;DHT22;56269;51.738;21.652;2023-10-13T15:38:17;17.29;91.41
69162;DHT22;56269;51.738;21.652;2023-10-13T15:40:45;17.24;91.66
69162;DHT22;56269;51.738;21.652;2023-10-13T15:43:12;17.05;92.20
69162;DHT22;56269;51.738;21.652;2023-10-13T15:45:38;17.08;92.32
69162;DHT22;56269;51.738;21.652;2023-10-13T15:48:05;16.96;92.57
69162;DHT22;56269;51.738;21.652;2023-10-13T15:50:39;17.00;92.83
69162;DHT22;56269;51.738;21.652;2023-10-13T15:53:09;16.92;92.93
69162;DHT22;56269;51.738;21.652;2023-10-13T15:55:41;16.98;92.94
69162;DHT22;56269;51.738;21.652;2023-10-13T15:58:11;17.00;92.80
69162;DHT22;56269;51.738;21.652;2023-10-13T16:00:38;16.98;92.93
69162;DHT22;56269;51.738;21.652;2023-10-13T16:03:04;16.92;93.27
69162;DHT22;56269;51.738;21.652;2023-10-13T16:05:38;16.81;93.55
69162;DHT22;56269;51.738;21.652;2023-10-13T16:08:06;16.78;93.73
69162;DHT22;56269;51.738;21.652;2023-10-13T16:10:38;16.71;94.04
69162;DHT22;56269;51.738;21.652;2023-10-13T16:13:04;16.65;94.08
69162;DHT22;56269;51.738;21.652;2023-10-13T16:15:36;16.61;94.29
69162;DHT22;56269;51.738;21.652;2023-10-13T16:18:06;16.52;94.42
69162;DHT22;56269;51.738;21.652;2023-10-13T16:20:32;16.49;94.77
69162;DHT22;56269;51.738;21.652;2023-10-13T16:22:58;16.42;94.98